Oakland, MD

5:30 AM EDT on September 24, 2017 (GMT -0400)
Oakland

Weather History for K2G4 - March, 2013

Change the Weather History Date:

Friday, March 22, 2013

  Actual Average (KMGW) Record (KMGW)
Temperature  
Mean Temperature 24 °F -  
Max Temperature 32 °F 51 °F 85 °F (2012)
Min Temperature 17 °F 31 °F 13 °F (1965)
Degree Days  
Heating Degree Days 40    
Moisture  
Dew Point 15 °F    
Average Humidity 72    
Maximum Humidity 93    
Minimum Humidity 48    
Precipitation  
Precipitation 0.00 in - - ()
Sea Level Pressure  
Sea Level Pressure 29.82 in    
Wind  
Wind Speed 12 mph (West)    
Max Wind Speed 20 mph    
Max Gust Speed 32 mph    
Visibility 8 miles    
Events      
Averages and records for this station are not official NWS values.
T = Trace of Precipitation, MM = Missing Value Source: NWS Daily Summary

Daily Weather History Graph

Daily Weather History Graph

Search for Another Location

Airport or City:

Trip Planner

Search our weather history database for the weather conditions in past years. The results will help you decide how hot, cold, wet, or windy it might be!

Date:

Astronomy

Mar. 22, 2013 Rise Set
Actual Time 7:17 AM EDT 7:31 PM EDT
Civil Twilight 6:50 AM EDT 7:58 PM EDT
Nautical Twilight 6:18 AM EDT 8:30 PM EDT
Astronomical Twilight 5:46 AM EDT 9:02 PM EDT
Moon 2:58 PM EDT (3/22) 4:15 AM EDT (3/22)
Length of Visible Light 13h 08m
Length of Day
12h 14m
Waxing Gibbous, 77% of the Moon is Illuminated
Mar 22
Waxing Gibbous
Mar 27
Full
Apr 3
Last Quarter
Apr 10
New
Apr 18
First Quarter

Hourly Weather History & Observations

Time (EDT) Temp. Windchill Dew Point Humidity Pressure Visibility Wind Dir Wind Speed Gust Speed Precip Events Conditions
12:05 AM 17.6 °F 3.2 °F 14.0 °F 86% 29.77 in 3.0 mi West 15.0 mph 21.9 mph N/A   Overcast
12:25 AM 17.6 °F 4.3 °F 14.0 °F 86% 29.77 in 3.0 mi West 12.7 mph 25.3 mph N/A   Overcast
12:45 AM 17.6 °F 2.7 °F 14.0 °F 86% 29.76 in 5.0 mi West 16.1 mph 25.3 mph N/A   Overcast
1:05 AM 17.6 °F 4.3 °F 12.2 °F 79% 29.76 in 10.0 mi West 12.7 mph 19.6 mph N/A   Overcast
1:25 AM 17.6 °F 3.7 °F 12.2 °F 79% 29.76 in 10.0 mi West 13.8 mph 23.0 mph N/A   Overcast
1:45 AM 17.6 °F 4.3 °F 12.2 °F 79% 29.76 in 10.0 mi West 12.7 mph 24.2 mph N/A   Overcast
2:05 AM 17.6 °F 4.3 °F 14.0 °F 86% 29.76 in 5.0 mi West 12.7 mph 19.6 mph N/A   Overcast
2:25 AM 17.6 °F 4.3 °F 14.0 °F 86% 29.76 in 7.0 mi West 12.7 mph 25.3 mph N/A   Mostly Cloudy
3:05 AM 17.6 °F 2.7 °F 14.0 °F 86% 29.76 in 10.0 mi West 16.1 mph 25.3 mph N/A   Mostly Cloudy
3:25 AM 17.6 °F 1.7 °F 14.0 °F 86% 29.76 in 7.0 mi West 18.4 mph 32.2 mph N/A   Overcast
3:45 AM 17.6 °F 3.7 °F 14.0 °F 86% 29.75 in 10.0 mi West 13.8 mph 26.5 mph N/A   Overcast
4:05 AM 17.6 °F 4.3 °F 14.0 °F 86% 29.75 in 10.0 mi West 12.7 mph 25.3 mph N/A   Mostly Cloudy
4:25 AM 17.6 °F 2.7 °F 14.0 °F 86% 29.74 in 5.0 mi West 16.1 mph 26.5 mph N/A   Overcast
4:45 AM 17.6 °F 4.3 °F 14.0 °F 86% 29.74 in 5.0 mi West 12.7 mph 24.2 mph N/A   Overcast
5:05 AM 17.6 °F 1.3 °F 15.8 °F 93% 29.75 in 3.0 mi West 19.6 mph 24.2 mph N/A   Overcast
5:25 AM 17.6 °F 3.2 °F 15.8 °F 93% 29.75 in 4.0 mi West 15.0 mph 24.2 mph N/A   Overcast
5:45 AM 17.6 °F 3.7 °F 15.8 °F 93% 29.76 in 3.0 mi West 13.8 mph 24.2 mph N/A   Overcast
6:05 AM 17.6 °F 3.2 °F 15.8 °F 93% 29.75 in 7.0 mi West 15.0 mph 26.5 mph N/A   Overcast
6:45 AM 17.6 °F 3.2 °F 14.0 °F 86% 29.77 in 7.0 mi West 15.0 mph 26.5 mph N/A   Overcast
7:05 AM 17.6 °F 5.0 °F 15.8 °F 93% 29.78 in 5.0 mi West 11.5 mph 20.7 mph N/A   Overcast
7:25 AM 17.6 °F 5.7 °F 15.8 °F 93% 29.78 in 2.0 mi West 10.4 mph 19.6 mph N/A   Overcast
7:45 AM 17.6 °F 5.7 °F 14.0 °F 86% 29.79 in 3.0 mi West 10.4 mph 17.3 mph N/A   Overcast
8:10 AM 17.6 °F 4.3 °F 14.0 °F 86% 29.79 in 4.0 mi West 12.7 mph 21.9 mph N/A   Overcast
8:30 AM 17.6 °F 6.4 °F 14.0 °F 86% 29.80 in 10.0 mi West 9.2 mph 16.1 mph N/A   Mostly Cloudy
8:50 AM 19.4 °F 5.0 °F 12.2 °F 74% 29.80 in 7.0 mi West 16.1 mph 24.2 mph N/A   Mostly Cloudy
9:10 AM 19.4 °F 7.2 °F 12.2 °F 74% 29.81 in 10.0 mi West 11.5 mph 19.6 mph N/A   Overcast
10:10 AM 19.4 °F 10.4 °F 14.0 °F 80% 29.83 in 2.0 mi West 6.9 mph 17.3 mph N/A   Haze
10:50 AM 19.4 °F 8.6 °F 14.0 °F 80% 29.83 in 2.5 mi West 9.2 mph - N/A   Haze
11:10 AM 19.4 °F 8.6 °F 14.0 °F 80% 29.83 in 4.0 mi West 9.2 mph - N/A   Haze
11:30 AM 21.2 °F 9.5 °F 14.0 °F 74% 29.83 in 5.0 mi West 11.5 mph 16.1 mph N/A   Haze
11:50 AM 21.2 °F 8.3 °F 14.0 °F 74% 29.83 in 7.0 mi West 13.8 mph 20.7 mph N/A   Overcast
12:10 PM 21.2 °F 9.5 °F 14.0 °F 74% 29.84 in 7.0 mi West 11.5 mph 18.4 mph N/A   Overcast
12:30 PM 23.0 °F 12.4 °F 14.0 °F 68% 29.83 in 10.0 mi West 10.4 mph 17.3 mph N/A   Overcast
12:50 PM 23.0 °F 11.1 °F 14.0 °F 68% 29.83 in 10.0 mi West 12.7 mph 19.6 mph N/A   Overcast
1:10 PM 24.8 °F 16.1 °F 14.0 °F 64% 29.83 in 10.0 mi WNW 8.1 mph - N/A   Overcast
1:30 PM 26.6 °F 18.2 °F 14.0 °F 59% 29.83 in 10.0 mi West 8.1 mph - N/A   Mostly Cloudy
1:50 PM 28.4 °F 19.1 °F 14.0 °F 55% 29.83 in 10.0 mi West 10.4 mph 17.3 mph N/A   Mostly Cloudy
2:10 PM 28.4 °F 19.1 °F 14.0 °F 55% 29.83 in 10.0 mi WNW 10.4 mph 16.1 mph N/A   Mostly Cloudy
2:30 PM 28.4 °F 18.5 °F 14.0 °F 55% 29.83 in 10.0 mi West 11.5 mph 24.2 mph N/A   Mostly Cloudy
2:50 PM 30.2 °F 19.8 °F 15.8 °F 55% 29.83 in 10.0 mi West 13.8 mph 18.4 mph N/A   Overcast
3:10 PM 30.2 °F 21.9 °F 15.8 °F 55% 29.83 in 10.0 mi West 9.2 mph - N/A   Overcast
3:50 PM 30.2 °F 21.3 °F 15.8 °F 55% 29.83 in 10.0 mi West 10.4 mph 17.3 mph N/A   Overcast
4:10 PM 30.2 °F 22.6 °F 15.8 °F 55% 29.83 in 10.0 mi West 8.1 mph 17.3 mph N/A   Overcast
4:30 PM 32.0 °F 21.6 °F 14.0 °F 48% 29.83 in 10.0 mi West 15.0 mph 20.7 mph N/A   Mostly Cloudy
5:10 PM 30.2 °F 20.8 °F 14.0 °F 51% 29.84 in 10.0 mi West 11.5 mph 23.0 mph N/A   Mostly Cloudy
5:30 PM 30.2 °F 18.9 °F 14.0 °F 51% 29.84 in 10.0 mi West 16.1 mph 23.0 mph N/A   Mostly Cloudy
5:50 PM 30.2 °F 22.6 °F 15.8 °F 55% 29.84 in 10.0 mi West 8.1 mph 16.1 mph N/A   Scattered Clouds
6:10 PM 30.2 °F 21.3 °F 14.0 °F 51% 29.84 in 10.0 mi West 10.4 mph 17.3 mph N/A   Scattered Clouds
6:30 PM 30.2 °F 23.4 °F 14.0 °F 51% 29.85 in 10.0 mi West 6.9 mph 18.4 mph N/A   Mostly Cloudy
6:50 PM 30.2 °F 23.4 °F 15.8 °F 55% 29.85 in 10.0 mi West 6.9 mph - N/A   Mostly Cloudy
7:10 PM 30.2 °F 22.6 °F 14.0 °F 51% 29.85 in 10.0 mi WNW 8.1 mph 16.1 mph N/A   Scattered Clouds
7:30 PM 30.2 °F 24.3 °F 15.8 °F 55% 29.86 in 10.0 mi WNW 5.8 mph - N/A   Scattered Clouds
7:50 PM 28.4 °F 22.2 °F 15.8 °F 59% 29.87 in 10.0 mi West 5.8 mph - N/A   Scattered Clouds
8:10 PM 28.4 °F 22.2 °F 15.8 °F 59% 29.87 in 10.0 mi West 5.8 mph - N/A   Scattered Clouds
8:30 PM 28.4 °F 22.2 °F 15.8 °F 59% 29.88 in 10.0 mi WNW 5.8 mph - N/A   Clear
8:50 PM 28.4 °F 24.6 °F 15.8 °F 59% 29.88 in 10.0 mi WNW 3.5 mph - N/A   Clear
9:10 PM 26.6 °F 21.2 °F 17.6 °F 69% 29.89 in 10.0 mi NW 4.6 mph - N/A   Clear
9:30 PM 26.6 °F 21.2 °F 15.8 °F 64% 29.89 in 10.0 mi NW 4.6 mph - N/A   Clear
9:50 PM 26.6 °F 21.2 °F 17.6 °F 69% 29.89 in 10.0 mi WNW 4.6 mph - N/A   Clear
10:10 PM 26.6 °F 21.2 °F 17.6 °F 69% 29.90 in 10.0 mi NW 4.6 mph - N/A   Clear
10:30 PM 24.8 °F 20.5 °F 17.6 °F 74% 29.90 in 10.0 mi NW 3.5 mph - N/A   Clear
10:50 PM 24.8 °F 19.1 °F 17.6 °F 74% 29.90 in 10.0 mi NW 4.6 mph - N/A   Clear
11:10 PM 24.8 °F 19.1 °F 17.6 °F 74% 29.90 in 10.0 mi WNW 4.6 mph - N/A   Clear
11:30 PM 23.0 °F 18.4 °F 17.6 °F 80% 29.91 in 10.0 mi WNW 3.5 mph - N/A   Clear
11:50 PM 23.0 °F 17.0 °F 17.6 °F 80% 29.91 in 10.0 mi WNW 4.6 mph - N/A   Clear